createdAt,value
2023-03-31T00:00:36.306Z,15.50
2023-03-31T00:05:39.636Z,15.20
2023-03-31T00:10:46.689Z,14.60
2023-03-31T00:15:49.395Z,14.40
2023-03-31T00:20:53.081Z,14.20
2023-03-31T00:25:56.194Z,14.10
2023-03-31T00:31:03.257Z,13.50
2023-03-31T00:36:06.587Z,13.30
2023-03-31T00:41:09.440Z,13.40
2023-03-31T00:46:18.884Z,13.40
2023-03-31T00:51:23.737Z,13.10
2023-03-31T00:56:30.703Z,13.30
2023-03-31T01:01:36.022Z,13.60
2023-03-31T01:06:47.382Z,13.40
2023-03-31T01:11:51.313Z,13.70
2023-03-31T01:16:54.629Z,14.00
2023-03-31T01:22:29.753Z,14.60
2023-03-31T01:28:08.383Z,14.70
2023-03-31T01:33:36.828Z,14.90
2023-03-31T01:38:53.956Z,14.90
2023-03-31T01:43:56.508Z,14.40
2023-03-31T01:49:10.968Z,13.90
2023-03-31T01:54:39.448Z,13.40
2023-03-31T01:59:56.861Z,13.60
2023-03-31T02:05:05.412Z,14.00
2023-03-31T02:10:09.971Z,13.40
2023-03-31T02:15:18.721Z,12.40
2023-03-31T02:20:23.269Z,12.20
2023-03-31T02:25:34.457Z,12.20
2023-03-31T02:31:09.570Z,12.20
2023-03-31T02:36:12.210Z,12.20
2023-03-31T02:41:15.004Z,12.50
2023-03-31T02:46:17.569Z,12.30
2023-03-31T02:51:45.194Z,11.60
2023-03-31T02:57:29.247Z,11.70
2023-03-31T03:03:07.443Z,12.10
2023-03-31T03:08:24.147Z,12.60
2023-03-31T03:13:36.983Z,13.10
2023-03-31T03:18:39.656Z,13.20
2023-03-31T03:23:43.241Z,12.40
2023-03-31T03:28:45.776Z,12.30
2023-03-31T03:33:48.325Z,12.50
2023-03-31T03:38:51.082Z,12.50
2023-03-31T03:43:53.672Z,13.00
2023-03-31T03:48:56.429Z,13.00
2023-03-31T03:53:58.951Z,12.80
2023-03-31T03:59:01.603Z,12.30
2023-03-31T04:04:04.796Z,12.10
2023-03-31T04:09:08.012Z,12.20
2023-03-31T04:14:10.806Z,12.50
2023-03-31T04:19:17.560Z,12.40
2023-03-31T04:24:22.017Z,12.70
2023-03-31T04:29:26.777Z,12.80
2023-03-31T04:34:35.617Z,12.30
2023-03-31T04:39:38.532Z,12.40
2023-03-31T04:44:41.100Z,12.10
2023-03-31T04:49:43.566Z,12.00
2023-03-31T04:54:46.207Z,12.20
2023-03-31T04:59:48.787Z,12.10
2023-03-31T05:04:51.690Z,12.10
2023-03-31T05:09:54.317Z,12.10
2023-03-31T05:14:56.824Z,12.00
2023-03-31T05:19:59.941Z,12.30
2023-03-31T05:25:04.220Z,11.90
2023-03-31T05:30:08.210Z,11.90
2023-03-31T05:35:11.416Z,12.30
2023-03-31T05:40:13.911Z,12.30
2023-03-31T05:45:16.702Z,12.30
2023-03-31T05:50:19.348Z,12.00
2023-03-31T05:55:22.171Z,11.50
2023-03-31T06:00:24.938Z,10.50
2023-03-31T06:05:28.036Z,10.20
2023-03-31T06:10:30.770Z,9.90
2023-03-31T06:15:33.382Z,9.80
2023-03-31T06:20:36.440Z,9.90
2023-03-31T06:25:50.428Z,9.90
2023-03-31T06:31:05.720Z,10.00
2023-03-31T06:36:10.091Z,10.10
2023-03-31T06:41:14.723Z,10.20
2023-03-31T06:46:17.617Z,10.30
2023-03-31T06:51:20.609Z,10.30
2023-03-31T06:56:23.320Z,10.40
2023-03-31T07:01:26.002Z,10.50
2023-03-31T07:06:28.746Z,10.60
2023-03-31T07:11:31.455Z,10.70
2023-03-31T07:16:34.145Z,11.10
2023-03-31T07:21:37.715Z,11.30
2023-03-31T07:26:40.303Z,11.80
2023-03-31T07:31:42.841Z,12.30
2023-03-31T07:36:45.559Z,13.10
2023-03-31T07:41:48.135Z,13.80
2023-03-31T07:46:50.802Z,14.20
2023-03-31T07:51:53.430Z,14.50
2023-03-31T07:56:56.263Z,14.90
2023-03-31T08:01:58.912Z,15.10
2023-03-31T08:07:01.767Z,15.70
2023-03-31T08:12:05.753Z,15.80
2023-03-31T08:17:08.507Z,15.60
2023-03-31T08:22:11.123Z,15.50
2023-03-31T08:27:13.754Z,15.50
2023-03-31T08:32:17.754Z,16.10
2023-03-31T08:37:20.451Z,16.10
2023-03-31T08:42:42.307Z,16.30
2023-03-31T08:47:47.935Z,16.60
2023-03-31T08:53:01.963Z,16.80
2023-03-31T08:58:18.457Z,16.90
2023-03-31T09:03:36.330Z,17.00
2023-03-31T09:08:42.082Z,17.10
2023-03-31T09:14:10.606Z,17.20
2023-03-31T09:19:40.779Z,17.10
2023-03-31T09:25:06.068Z,17.20
2023-03-31T09:30:23.463Z,16.80
2023-03-31T09:35:26.827Z,16.90
2023-03-31T09:40:30.724Z,17.00
2023-03-31T09:45:36.780Z,16.90
2023-03-31T09:51:05.999Z,15.90
2023-03-31T09:56:11.423Z,15.40
2023-03-31T10:01:15.705Z,15.80
2023-03-31T10:06:18.601Z,16.30
2023-03-31T10:11:22.034Z,16.50
2023-03-31T10:16:31.917Z,16.80
2023-03-31T10:21:37.396Z,16.90
2023-03-31T10:26:41.228Z,16.90
2023-03-31T10:31:43.996Z,17.00
2023-03-31T10:36:50.055Z,17.00
2023-03-31T10:41:53.539Z,17.00
2023-03-31T10:46:57.248Z,16.90
2023-03-31T10:52:01.268Z,16.90
2023-03-31T10:57:06.363Z,16.90
2023-03-31T11:02:48.276Z,17.00
2023-03-31T11:08:04.348Z,17.40
2023-03-31T11:13:38.777Z,17.40
2023-03-31T11:19:03.647Z,17.60
2023-03-31T11:24:24.475Z,17.50
2023-03-31T11:30:04.434Z,17.60
2023-03-31T11:35:35.694Z,17.50
2023-03-31T11:40:44.510Z,17.70
2023-03-31T11:45:54.087Z,17.80
2023-03-31T11:50:58.193Z,17.70
2023-03-31T11:56:02.636Z,17.30
2023-03-31T12:01:23.090Z,16.80
2023-03-31T12:06:30.778Z,16.50
2023-03-31T12:11:36.313Z,16.10
2023-03-31T12:16:46.281Z,15.80
2023-03-31T12:22:17.740Z,15.70
2023-03-31T12:27:42.511Z,15.50
2023-03-31T12:32:49.895Z,15.20
2023-03-31T12:38:07.773Z,15.00
2023-03-31T12:43:35.280Z,14.80
2023-03-31T12:49:05.160Z,14.70
2023-03-31T12:54:43.004Z,14.70
2023-03-31T12:59:47.108Z,14.50
2023-03-31T13:04:53.406Z,14.40
2023-03-31T13:10:21.696Z,14.30
2023-03-31T13:15:25.085Z,14.20
2023-03-31T13:20:32.659Z,14.20
2023-03-31T13:25:51.385Z,14.30
2023-03-31T13:31:02.139Z,14.20
2023-03-31T13:36:07.599Z,14.30
2023-03-31T13:41:24.759Z,14.40
2023-03-31T13:46:45.857Z,14.50
2023-03-31T13:52:01.802Z,14.70
2023-03-31T13:57:19.417Z,14.80
2023-03-31T14:02:40.719Z,14.90
2023-03-31T14:07:55.787Z,15.00
2023-03-31T14:13:12.834Z,15.10
2023-03-31T14:18:46.228Z,15.20
2023-03-31T14:23:54.581Z,15.20
2023-03-31T14:29:02.796Z,15.10
2023-03-31T14:34:42.559Z,15.10
2023-03-31T14:39:56.835Z,15.00
2023-03-31T14:45:04.518Z,15.00
2023-03-31T14:50:15.386Z,14.90
2023-03-31T14:55:24.941Z,14.80
2023-03-31T15:00:33.012Z,14.60
2023-03-31T15:05:38.105Z,14.20
2023-03-31T15:10:46.083Z,13.80
2023-03-31T15:15:48.553Z,13.50
2023-03-31T15:20:51.254Z,13.40
2023-03-31T15:26:08.777Z,13.30
2023-03-31T15:31:12.043Z,13.20
2023-03-31T15:36:15.116Z,13.10
2023-03-31T15:41:18.435Z,13.00
2023-03-31T15:46:45.724Z,13.00
2023-03-31T15:51:48.848Z,13.00
2023-03-31T15:56:56.877Z,12.90
2023-03-31T16:02:03.882Z,12.90
2023-03-31T16:07:10.121Z,12.80
2023-03-31T16:12:21.643Z,12.90
2023-03-31T16:17:53.426Z,13.00
2023-03-31T16:23:01.986Z,13.00
2023-03-31T16:28:05.295Z,12.90
2023-03-31T16:33:13.356Z,12.90
2023-03-31T16:38:16.698Z,12.80
2023-03-31T16:43:21.559Z,12.80
2023-03-31T16:48:26.215Z,12.60
2023-03-31T16:53:34.834Z,12.40
2023-03-31T16:58:38.522Z,12.40
2023-03-31T17:03:42.239Z,12.30
2023-03-31T17:08:44.983Z,12.10
2023-03-31T17:13:48.784Z,12.10
2023-03-31T17:18:51.470Z,12.20
2023-03-31T17:23:54.937Z,12.50
2023-03-31T17:28:58.016Z,12.50
2023-03-31T17:34:01.597Z,12.60
2023-03-31T17:39:05.269Z,12.60
2023-03-31T17:44:08.772Z,12.80
2023-03-31T17:49:11.838Z,12.80
2023-03-31T17:54:14.455Z,12.80
2023-03-31T17:59:20.980Z,12.80
2023-03-31T18:04:24.560Z,13.10
2023-03-31T18:09:28.232Z,13.50
2023-03-31T18:14:30.904Z,13.70
2023-03-31T18:19:33.553Z,13.30
2023-03-31T18:24:38.376Z,12.60
2023-03-31T18:34:43.988Z,11.00
2023-03-31T18:39:46.498Z,10.80
2023-03-31T18:44:48.997Z,10.70
2023-03-31T18:49:55.576Z,10.40
2023-03-31T18:54:58.646Z,10.20
2023-03-31T19:00:01.741Z,10.10
2023-03-31T19:05:04.574Z,10.00
2023-03-31T19:10:08.212Z,10.00
2023-03-31T19:15:10.943Z,10.10
2023-03-31T19:20:16.673Z,10.10
2023-03-31T19:25:20.700Z,10.00
2023-03-31T19:30:25.162Z,10.00
2023-03-31T19:35:29.597Z,9.90
2023-03-31T19:40:32.200Z,9.90
2023-03-31T19:45:37.057Z,9.90
2023-03-31T19:50:39.840Z,9.80
2023-03-31T19:55:42.973Z,9.70
2023-03-31T20:00:45.597Z,9.60
2023-03-31T20:05:48.741Z,9.60
2023-03-31T20:10:51.614Z,9.60
2023-03-31T20:16:04.787Z,9.60
2023-03-31T20:21:11.395Z,9.50
2023-03-31T20:26:17.480Z,9.50
2023-03-31T20:31:29.973Z,9.60
2023-03-31T20:36:33.363Z,9.60
2023-03-31T20:41:37.511Z,9.60
2023-03-31T20:46:40.423Z,9.60
2023-03-31T20:51:43.810Z,9.60
2023-03-31T20:56:47.181Z,9.70
2023-03-31T21:01:49.876Z,9.80
2023-03-31T21:06:53.805Z,9.80
2023-03-31T21:11:56.275Z,9.90
2023-03-31T21:16:58.907Z,10.00
2023-03-31T21:22:01.532Z,10.10
2023-03-31T21:27:04.306Z,10.00
2023-03-31T21:32:07.046Z,10.10
2023-03-31T21:37:10.181Z,9.90
2023-03-31T21:42:14.069Z,10.00
2023-03-31T21:47:16.767Z,10.00
2023-03-31T21:52:19.238Z,10.10
2023-03-31T21:57:21.831Z,10.20
2023-03-31T22:02:24.422Z,10.40
2023-03-31T22:07:27.136Z,10.30
2023-03-31T22:12:30.898Z,10.30
2023-03-31T22:17:33.896Z,10.20
2023-03-31T22:22:40.061Z,10.10
2023-03-31T22:27:42.648Z,10.00
2023-03-31T22:32:45.165Z,10.00
2023-03-31T22:37:47.702Z,9.90
2023-03-31T22:42:50.274Z,9.70
2023-03-31T22:47:52.904Z,9.60
2023-03-31T22:52:55.447Z,9.60
2023-03-31T22:57:57.942Z,9.50
2023-03-31T23:03:00.813Z,9.50
2023-03-31T23:08:03.573Z,9.40
2023-03-31T23:13:07.264Z,9.40
2023-03-31T23:18:09.845Z,9.40
2023-03-31T23:23:12.508Z,9.50
2023-03-31T23:28:15.032Z,9.70
2023-03-31T23:33:17.541Z,9.60
2023-03-31T23:38:20.872Z,9.60
2023-03-31T23:43:25.359Z,9.50
2023-03-31T23:48:27.989Z,9.40
2023-03-31T23:53:31.073Z,9.50
2023-03-31T23:58:33.875Z,9.50
